Time;durP1;ratioP1;P1;durP2;ratioP2;P2;SDS_P1;SDS_P2;PMS_P1;PMS_P2;Temp;Humidity;BMP_temperature;BMP_pressure;BME280_temperature;BME280_humidity;BME280_pressure;Samples;Min_cycle;Max_cycle;Signal;HPM_P1;HPM_P2
2021/04/10 00:01:58;;;;;;;1.60;0.50;;;13.50;36.00;;;;;;5031689;28;20376;-62
2021/04/10 00:04:25;;;;;;;3.50;1.23;;;13.50;36.10;;;;;;5020469;28;20072;-62
2021/04/10 00:06:50;;;;;;;3.60;0.70;;;13.50;36.20;;;;;;5027213;28;20061;-62
2021/04/10 00:09:16;;;;;;;1.55;0.80;;;13.50;36.20;;;;;;5023930;28;20090;-62
2021/04/10 00:11:42;;;;;;;1.85;1.00;;;13.60;36.20;;;;;;5027887;28;20030;-62
2021/04/10 00:14:27;;;;;;;2.95;0.90;;;13.60;36.10;;;;;;5027709;28;20083;-62
2021/04/10 00:16:53;;;;;;;;;;;13.60;36.80;;;;;;5024981;28;20037;-62
2021/04/10 00:19:19;;;;;;;2.50;0.80;;;13.60;37.30;;;;;;5020594;28;19909;-63
2021/04/10 00:21:44;;;;;;;4.15;0.77;;;13.60;36.80;;;;;;5024427;28;20025;-63
2021/04/10 00:24:11;;;;;;;2.97;1.05;;;13.60;36.50;;;;;;5028827;28;20099;-63
2021/04/10 00:26:37;;;;;;;1.10;0.55;;;13.40;36.60;;;;;;5020367;28;20037;-63
2021/04/10 00:29:03;;;;;;;1.65;0.68;;;13.60;36.70;;;;;;5019127;28;20434;-63
2021/04/10 00:31:28;;;;;;;1.33;0.85;;;13.50;36.70;;;;;;5026731;28;20021;-63
2021/04/10 00:33:54;;;;;;;1.92;0.85;;;13.60;36.90;;;;;;5031795;28;20172;-63
2021/04/10 00:36:20;;;;;;;3.47;1.00;;;13.60;36.80;;;;;;5046300;28;20513;-63
2021/04/10 00:38:45;;;;;;;3.70;0.88;;;13.50;36.80;;;;;;5029540;28;20442;-63
2021/04/10 00:41:12;;;;;;;1.90;0.55;;;13.50;36.60;;;;;;5025874;28;20030;-63
2021/04/10 00:43:38;;;;;;;2.00;0.75;;;13.60;37.00;;;;;;5032350;28;20034;-63
2021/04/10 00:46:05;;;;;;;1.88;0.77;;;13.50;37.00;;;;;;5047814;28;20034;-63
2021/04/10 00:48:31;;;;;;;2.40;1.00;;;13.50;36.90;;;;;;5033486;28;20052;-63
2021/04/10 00:50:57;;;;;;;2.80;0.93;;;13.50;36.90;;;;;;5028557;28;20029;-63
2021/04/10 01:00:33;;;;;;;4.55;1.58;;;13.60;37.60;;;;;;5022367;28;20200;-63
2021/04/10 01:02:59;;;;;;;2.17;0.95;;;13.50;37.00;;;;;;5050085;28;20044;-63
2021/04/10 01:05:25;;;;;;;2.13;0.90;;;13.50;37.40;;;;;;5049552;28;20104;-63
2021/04/10 01:07:50;;;;;;;2.25;1.10;;;13.50;37.20;;;;;;5056435;28;20025;-63
2021/04/10 01:10:16;;;;;;;4.25;0.98;;;13.50;37.10;;;;;;5050478;28;20079;-63
2021/04/10 01:13:09;;;;;;;2.58;1.05;;;13.60;37.00;;;;;;5052251;28;20033;-63
2021/04/10 01:15:44;;;;;;;3.70;1.30;;;13.50;37.30;;;;;;5052736;28;20094;-63
2021/04/10 01:18:23;;;;;;;1.90;1.15;;;13.40;37.00;;;;;;5055026;28;20025;-63
2021/04/10 01:20:59;;;;;;;2.17;1.60;;;13.50;36.80;;;;;;5039820;28;20025;-63
2021/04/10 01:23:47;;;;;;;3.80;1.40;;;13.40;37.10;;;;;;5049079;28;20033;-63
2021/04/10 01:26:38;;;;;;;3.60;1.77;;;13.20;37.20;;;;;;5035643;28;20030;-63
2021/04/10 01:29:08;;;;;;;2.15;1.60;;;13.30;37.90;;;;;;5044300;28;20030;-63
2021/04/10 01:31:40;;;;;;;5.10;1.83;;;13.30;37.40;;;;;;5054725;28;20162;-63
2021/04/10 01:34:12;;;;;;;2.28;1.50;;;13.40;37.20;;;;;;5040019;28;20114;-63
2021/04/10 01:36:40;;;;;;;2.45;1.60;;;13.40;37.10;;;;;;5041329;28;20391;-63
2021/04/10 01:39:10;;;;;;;2.58;1.60;;;13.40;37.20;;;;;;5049852;28;20037;-63
2021/04/10 01:41:42;;;;;;;4.82;1.63;;;13.30;37.30;;;;;;5048298;28;20037;-63
2021/04/10 01:44:09;;;;;;;7.93;1.80;;;13.40;37.30;;;;;;5055220;28;20052;-63
2021/04/10 01:46:36;;;;;;;2.58;1.30;;;13.40;37.30;;;;;;5051334;28;20031;-63
2021/04/10 01:49:03;;;;;;;2.58;1.40;;;13.30;37.20;;;;;;5052563;28;20032;-63
2021/04/10 01:51:30;;;;;;;3.53;1.20;;;13.40;37.30;;;;;;5054752;28;20025;-63
2021/04/10 01:53:56;;;;;;;4.15;1.13;;;13.40;37.20;;;;;;5053218;28;20147;-63
2021/04/10 01:56:23;;;;;;;2.95;1.20;;;13.40;37.30;;;;;;5047956;28;20083;-63
2021/04/10 01:58:50;;;;;;;3.92;1.58;;;13.30;37.10;;;;;;5052657;28;20043;-63
2021/04/10 02:01:17;;;;;;;3.13;1.25;;;13.40;37.10;;;;;;5053327;28;20094;-63
2021/04/10 02:03:46;;;;;;;4.05;1.55;;;13.50;37.20;;;;;;5046152;28;20040;-63
2021/04/10 02:06:13;;;;;;;2.58;1.30;;;13.30;37.90;;;;;;5049029;28;20434;-63
2021/04/10 02:08:42;;;;;;;2.55;1.40;;;13.20;37.30;;;;;;5042519;28;20029;-63
2021/04/10 02:11:09;;;;;;;3.95;1.00;;;13.30;37.50;;;;;;5047548;28;20427;-62
2021/04/10 02:13:36;;;;;;;5.55;1.20;;;13.20;37.50;;;;;;5045158;28;20026;-63
2021/04/10 02:16:02;;;;;;;2.92;1.08;;;13.30;37.70;;;;;;5053735;28;20462;-62
2021/04/10 02:18:29;;;;;;;2.20;1.25;;;13.20;37.50;;;;;;5046594;28;20132;-62
2021/04/10 02:20:58;;;;;;;2.35;1.08;;;13.20;37.80;;;;;;5045838;28;20504;-63
2021/04/10 02:23:24;;;;;;;1.90;1.10;;;13.30;38.20;;;;;;5041830;28;20034;-63
2021/04/10 02:25:50;;;;;;;2.20;1.20;;;13.20;37.60;;;;;;5054787;28;20029;-62
2021/04/10 02:28:15;;;;;;;2.47;1.15;;;13.30;37.70;;;;;;5039911;28;20037;-63
2021/04/10 02:30:41;;;;;;;2.17;1.05;;;13.30;37.90;;;;;;5057918;28;20399;-63
2021/04/10 02:33:32;;;;;;;4.70;1.23;;;13.30;37.60;;;;;;5052915;28;20039;-63
2021/04/10 02:35:59;;;;;;;3.33;1.02;;;13.30;38.20;;;;;;5046910;28;20079;-62
2021/04/10 02:38:27;;;;;;;2.70;1.20;;;13.20;37.70;;;;;;5057222;28;20070;-62
2021/04/10 02:41:04;;;;;;;3.13;1.00;;;13.10;37.90;;;;;;5061094;28;20032;-63
2021/04/10 02:43:34;;;;;;;2.00;0.80;;;13.10;38.20;;;;;;5048346;28;20036;-63
2021/04/10 02:46:03;;;;;;;2.80;1.17;;;13.00;38.30;;;;;;5045598;28;20108;-63
2021/04/10 02:48:36;;;;;;;2.80;1.10;;;12.90;38.20;;;;;;5047736;28;20104;-63
2021/04/10 02:51:03;;;;;;;2.03;0.68;;;13.00;38.20;;;;;;5044777;28;20028;-64
2021/04/10 02:53:33;;;;;;;3.45;1.48;;;13.00;38.30;;;;;;5053328;28;20026;-64
2021/04/10 02:56:00;;;;;;;4.63;1.23;;;13.10;38.10;;;;;;5047260;28;20104;-63
2021/04/10 02:58:28;;;;;;;2.08;0.90;;;13.10;38.60;;;;;;5062068;28;20112;-63
2021/04/10 03:00:56;;;;;;;4.70;1.00;;;13.00;37.90;;;;;;5043567;28;20510;-63
2021/04/10 03:03:23;;;;;;;1.60;1.00;;;13.00;38.20;;;;;;5052842;28;20025;-63
2021/04/10 03:05:49;;;;;;;3.30;0.70;;;12.90;38.00;;;;;;5052972;28;20059;-63
2021/04/10 03:08:21;;;;;;;4.05;1.17;;;13.10;38.20;;;;;;5042404;28;20480;-64
2021/04/10 03:10:49;;;;;;;1.70;0.90;;;13.10;37.90;;;;;;5036197;28;20132;-63
2021/04/10 03:13:17;;;;;;;1.55;1.05;;;13.20;38.20;;;;;;5049480;28;20029;-63
2021/04/10 03:15:43;;;;;;;3.42;0.77;;;13.20;38.20;;;;;;5051775;28;20025;-63
2021/04/10 03:18:11;;;;;;;1.15;0.90;;;13.20;38.10;;;;;;5050373;28;20409;-63
2021/04/10 03:20:37;;;;;;;2.20;1.00;;;13.20;38.20;;;;;;5036591;28;20411;-63
2021/04/10 03:23:04;;;;;;;2.20;1.15;;;13.20;38.40;;;;;;5051687;28;20044;-63
2021/04/10 03:25:29;;;;;;;2.20;0.73;;;13.20;38.10;;;;;;5053690;28;20040;-64
2021/04/10 03:27:55;;;;;;;2.55;1.00;;;13.20;38.30;;;;;;5053311;28;20474;-63
2021/04/10 03:30:22;;;;;;;2.17;1.00;;;13.10;38.50;;;;;;5045502;28;20031;-63
2021/04/10 03:32:49;;;;;;;1.65;0.68;;;13.20;38.40;;;;;;5049859;28;20023;-63
2021/04/10 03:35:15;;;;;;;3.53;1.45;;;13.10;38.00;;;;;;5048269;28;20049;-63
2021/04/10 03:37:41;;;;;;;3.72;0.88;;;13.10;37.90;;;;;;5046394;28;20024;-63
2021/04/10 03:40:07;;;;;;;1.30;0.88;;;13.20;38.10;;;;;;5048220;28;20029;-63
2021/04/10 03:42:41;;;;;;;2.03;0.80;;;13.30;37.90;;;;;;5044626;28;20072;-63
2021/04/10 03:45:14;;;;;;;4.50;1.00;;;13.30;37.90;;;;;;5049350;28;20052;-63
2021/04/10 03:47:40;;;;;;;3.05;0.73;;;13.30;38.00;;;;;;5053209;28;20362;-63
2021/04/10 03:50:07;;;;;;;2.53;0.90;;;13.30;38.00;;;;;;5048056;28;20100;-63
2021/04/10 03:52:33;;;;;;;1.48;0.98;;;13.30;37.90;;;;;;5051669;28;20037;-63
2021/04/10 03:54:59;;;;;;;3.55;0.95;;;13.30;37.80;;;;;;5048575;28;20033;-63
2021/04/10 03:57:26;;;;;;;3.08;0.60;;;13.30;37.90;;;;;;5041817;28;20455;-63
2021/04/10 03:59:51;;;;;;;2.70;0.68;;;13.30;37.30;;;;;;5059360;28;20082;-62
2021/04/10 04:02:17;;;;;;;4.85;0.80;;;13.30;37.60;;;;;;5048900;28;20119;-63
2021/04/10 04:04:42;;;;;;;2.90;0.95;;;13.20;37.60;;;;;;5042098;28;20179;-63
2021/04/10 04:07:08;;;;;;;2.08;0.70;;;13.20;37.70;;;;;;5049957;28;20020;-63
2021/04/10 04:09:36;;;;;;;2.55;1.00;;;13.00;37.90;;;;;;5043516;28;20029;-63
2021/04/10 04:12:02;;;;;;;2.92;0.70;;;13.10;38.40;;;;;;5040765;28;20017;-62
2021/04/10 04:14:28;;;;;;;2.60;0.68;;;13.20;37.80;;;;;;5046571;28;20021;-62
2021/04/10 04:16:53;;;;;;;5.22;0.50;;;13.10;37.80;;;;;;5049816;28;20039;-63
2021/04/10 04:19:19;;;;;;;0.85;0.60;;;13.20;38.00;;;;;;5048848;28;20347;-63
2021/04/10 04:21:44;;;;;;;5.80;1.05;;;13.20;37.70;;;;;;5045937;28;20029;-63
2021/04/10 04:24:10;;;;;;;1.35;0.70;;;13.20;37.70;;;;;;5050896;28;20123;-63
2021/04/10 04:26:36;;;;;;;1.38;0.65;;;13.10;37.80;;;;;;5038330;28;20029;-63
2021/04/10 04:29:03;;;;;;;2.85;1.20;;;13.10;38.00;;;;;;5052738;28;20051;-63
2021/04/10 04:31:29;;;;;;;1.98;0.93;;;13.10;38.40;;;;;;5050628;28;20021;-62
2021/04/10 04:33:54;;;;;;;2.85;0.70;;;13.00;38.20;;;;;;5040823;28;20112;-63
2021/04/10 04:36:20;;;;;;;2.33;0.80;;;13.20;38.70;;;;;;5051039;28;20052;-63
2021/04/10 04:38:46;;;;;;;4.68;1.00;;;13.20;38.30;;;;;;5042554;28;20048;-63
2021/04/10 04:41:12;;;;;;;4.80;0.90;;;13.20;38.20;;;;;;5051500;28;20536;-63
2021/04/10 04:43:38;;;;;;;4.32;1.10;;;13.10;38.40;;;;;;5043312;28;20045;-63
2021/04/10 04:46:03;;;;;;;3.22;1.00;;;13.10;38.70;;;;;;5047795;28;20028;-63
2021/04/10 04:48:29;;;;;;;3.40;0.60;;;13.10;38.50;;;;;;5043271;28;20061;-63
2021/04/10 04:50:55;;;;;;;3.05;0.60;;;13.20;38.40;;;;;;5037898;28;20441;-63
2021/04/10 04:53:21;;;;;;;6.00;1.08;;;13.30;38.50;;;;;;5041429;28;20106;-63
2021/04/10 04:55:48;;;;;;;2.13;0.93;;;13.10;38.40;;;;;;5046764;28;20113;-63
2021/04/10 04:58:13;;;;;;;0.80;0.50;;;13.20;38.60;;;;;;5039399;28;20394;-63
2021/04/10 05:00:39;;;;;;;1.33;0.65;;;13.20;38.40;;;;;;5044581;28;20049;-63
2021/04/10 05:03:05;;;;;;;2.75;0.90;;;13.20;38.40;;;;;;5033807;28;20084;-63
2021/04/10 05:05:30;;;;;;;1.98;0.60;;;13.30;39.00;;;;;;5040296;28;20360;-63
2021/04/10 05:07:56;;;;;;;1.88;0.52;;;13.20;38.50;;;;;;5039727;28;20024;-63
2021/04/10 05:10:22;;;;;;;3.20;0.70;;;13.30;38.50;;;;;;5035851;28;20025;-63
2021/04/10 05:12:47;;;;;;;2.17;0.60;;;13.30;38.50;;;;;;5039959;28;20065;-63
2021/04/10 05:15:13;;;;;;;3.25;0.90;;;13.30;38.50;;;;;;5041890;28;20025;-63
2021/04/10 05:17:39;;;;;;;2.88;0.70;;;13.40;38.50;;;;;;5039382;28;20510;-63
2021/04/10 05:20:07;;;;;;;3.08;0.88;;;13.40;38.50;;;;;;5041974;28;20026;-63
2021/04/10 05:22:33;;;;;;;2.42;0.60;;;13.30;38.40;;;;;;5037178;28;20475;-63
2021/04/10 05:24:59;;;;;;;2.17;0.55;;;13.40;38.70;;;;;;5049597;28;20032;-63
2021/04/10 05:27:25;;;;;;;2.50;0.70;;;13.40;38.60;;;;;;5042390;28;20020;-63
2021/04/10 05:29:50;;;;;;;3.25;0.60;;;13.40;38.60;;;;;;5050779;28;20044;-63
2021/04/10 05:32:16;;;;;;;3.42;0.60;;;13.40;38.40;;;;;;5050529;28;20030;-63
2021/04/10 05:34:42;;;;;;;1.30;0.50;;;13.30;38.70;;;;;;5053119;28;20029;-63
2021/04/10 05:37:07;;;;;;;1.85;0.70;;;13.40;38.60;;;;;;5045176;28;20475;-63
2021/04/10 05:39:33;;;;;;;4.00;1.00;;;13.40;38.50;;;;;;5055662;28;20033;-63
2021/04/10 05:41:59;;;;;;;3.05;0.70;;;13.40;38.40;;;;;;5043413;28;20025;-63
2021/04/10 05:44:24;;;;;;;1.80;0.73;;;13.50;38.40;;;;;;5038272;28;20048;-63
2021/04/10 05:46:50;;;;;;;1.40;0.80;;;13.50;38.40;;;;;;5063820;28;20080;-63
2021/04/10 05:49:16;;;;;;;5.75;0.70;;;13.60;38.40;;;;;;5038749;28;20040;-63
2021/04/10 05:51:41;;;;;;;3.67;0.98;;;13.60;38.40;;;;;;5040391;28;20530;-63
2021/04/10 05:54:08;;;;;;;2.20;0.80;;;13.50;38.40;;;;;;5049062;28;20478;-63
2021/04/10 05:56:36;;;;;;;2.33;0.95;;;13.50;38.50;;;;;;5049498;28;20112;-63
2021/04/10 05:59:02;;;;;;;3.05;0.63;;;13.40;38.70;;;;;;5052739;28;20049;-63
2021/04/10 06:01:28;;;;;;;3.40;1.08;;;13.40;38.80;;;;;;5045998;28;20127;-63
2021/04/10 06:03:58;;;;;;;2.15;0.73;;;13.40;38.80;;;;;;5048715;28;20476;-63
2021/04/10 06:06:23;;;;;;;1.70;0.85;;;13.40;38.60;;;;;;5054891;28;20021;-63
2021/04/10 06:08:50;;;;;;;1.23;0.70;;;13.40;38.60;;;;;;5048503;28;20080;-63
2021/04/10 06:11:16;;;;;;;2.22;0.73;;;13.60;38.70;;;;;;5050444;28;20033;-63
2021/04/10 06:13:42;;;;;;;4.65;1.10;;;13.60;38.50;;;;;;5055240;28;20032;-63
2021/04/10 06:16:08;;;;;;;2.47;0.77;;;13.60;38.40;;;;;;5048944;28;20074;-64
2021/04/10 06:18:34;;;;;;;2.28;0.90;;;13.70;38.40;;;;;;5042474;28;20060;-64
2021/04/10 06:21:00;;;;;;;2.38;0.90;;;13.80;38.20;;;;;;5039413;28;20156;-64
2021/04/10 06:23:26;;;;;;;2.17;1.10;;;13.50;38.40;;;;;;5054620;28;20476;-64
2021/04/10 06:25:51;;;;;;;5.07;0.90;;;13.70;39.00;;;;;;5044024;28;20487;-63
2021/04/10 06:28:17;;;;;;;4.38;1.05;;;13.70;38.20;;;;;;5047978;28;20028;-63
2021/04/10 06:30:43;;;;;;;3.35;0.85;;;13.80;38.10;;;;;;5047519;28;20491;-63
2021/04/10 06:33:08;;;;;;;2.55;0.95;;;13.90;37.80;;;;;;5040962;28;20132;-63
2021/04/10 06:35:34;;;;;;;2.72;0.90;;;13.70;37.60;;;;;;5053779;28;20509;-63
2021/04/10 06:38:00;;;;;;;2.78;0.90;;;13.70;37.90;;;;;;5046865;28;20036;-63
2021/04/10 06:40:26;;;;;;;5.03;0.90;;;13.70;38.10;;;;;;5053805;28;20021;-63
2021/04/10 06:42:54;;;;;;;2.38;1.00;;;13.70;38.00;;;;;;5052632;28;20512;-63
2021/04/10 06:45:20;;;;;;;2.67;1.15;;;13.90;37.90;;;;;;5042101;28;20032;-63
2021/04/10 06:47:49;;;;;;;3.47;0.80;;;13.80;37.80;;;;;;5048667;28;20457;-63
2021/04/10 06:50:15;;;;;;;5.05;1.15;;;14.00;37.70;;;;;;5045126;28;20029;-63
2021/04/10 06:52:42;;;;;;;4.05;1.42;;;13.90;37.50;;;;;;5043733;28;20062;-63
2021/04/10 06:55:14;;;;;;;2.60;0.88;;;14.00;37.40;;;;;;5054098;28;20056;-63
2021/04/10 06:58:08;;;;;;;5.18;1.80;;;14.20;37.70;;;;;;5051120;28;20116;-63
2021/04/10 07:00:34;;;;;;;1.75;1.10;;;14.20;38.00;;;;;;5045233;28;20033;-62
2021/04/10 07:03:02;;;;;;;2.92;1.48;;;14.20;37.40;;;;;;5040306;28;20035;-63
2021/04/10 07:05:29;;;;;;;2.20;1.13;;;14.20;37.40;;;;;;5049197;28;20439;-63
2021/04/10 07:07:56;;;;;;;2.67;0.82;;;14.20;36.90;;;;;;5053869;28;20138;-63
2021/04/10 07:10:22;;;;;;;3.63;1.05;;;14.20;37.10;;;;;;5049469;28;20025;-63
2021/04/10 07:12:48;;;;;;;3.00;0.75;;;14.10;37.20;;;;;;5042069;28;20040;-63
2021/04/10 07:15:15;;;;;;;2.45;0.95;;;14.20;37.40;;;;;;5044412;28;20029;-63
2021/04/10 07:17:41;;;;;;;1.05;0.57;;;14.30;37.20;;;;;;5041133;28;20455;-63
2021/04/10 07:20:26;;;;;;;6.97;1.40;;;14.30;37.10;;;;;;5042989;28;20064;-63
2021/04/10 07:22:55;;;;;;;;;;;14.40;37.50;;;;;;5043843;28;20036;-63
2021/04/10 07:25:25;;;;;;;3.75;0.93;;;14.40;37.30;;;;;;5039324;28;20267;-64
2021/04/10 07:27:52;;;;;;;2.17;1.42;;;14.50;37.10;;;;;;5041787;28;20090;-63
2021/04/10 07:30:18;;;;;;;4.97;1.40;;;14.50;36.80;;;;;;5035483;28;20060;-63
2021/04/10 07:32:44;;;;;;;5.55;1.60;;;14.40;36.80;;;;;;5032657;28;20069;-63
2021/04/10 07:35:14;;;;;;;6.13;1.92;;;14.50;36.90;;;;;;5041386;28;20068;-63
2021/04/10 07:37:50;;;;;;;5.10;1.88;;;14.60;36.50;;;;;;5050675;28;20025;-63
2021/04/10 07:40:26;;;;;;;4.47;1.88;;;14.70;36.50;;;;;;5048250;28;20032;-64
2021/04/10 07:42:53;;;;;;;6.13;1.88;;;14.70;36.50;;;;;;5044314;28;20060;-63
2021/04/10 07:45:24;;;;;;;3.05;1.70;;;14.90;36.00;;;;;;5050880;28;20032;-63
2021/04/10 07:47:51;;;;;;;4.90;2.00;;;14.90;35.70;;;;;;5045932;28;20443;-63
2021/04/10 07:50:18;;;;;;;5.65;2.08;;;15.00;35.90;;;;;;5048211;28;20057;-63
2021/04/10 07:52:44;;;;;;;3.00;1.73;;;15.10;35.70;;;;;;5046620;28;20024;-63
2021/04/10 07:55:42;;;;;;;6.25;2.10;;;15.00;35.60;;;;;;5045004;28;20025;-63
2021/04/10 07:58:31;;;;;;;2.20;1.45;;;15.10;35.40;;;;;;5037396;28;20543;-63
2021/04/10 08:00:58;;;;;;;6.10;1.85;;;15.30;35.30;;;;;;5046881;28;20402;-63
2021/04/10 08:03:30;;;;;;;4.22;1.52;;;15.40;35.00;;;;;;5039370;28;20033;-63
2021/04/10 08:06:05;;;;;;;4.80;1.23;;;15.40;35.10;;;;;;5033092;28;20391;-63
2021/04/10 08:08:33;;;;;;;4.32;1.25;;;15.30;35.10;;;;;;5041647;28;20025;-63
2021/04/10 08:11:00;;;;;;;5.43;2.00;;;15.40;34.80;;;;;;5046082;28;20420;-63
2021/04/10 08:13:27;;;;;;;6.43;2.08;;;15.50;35.10;;;;;;5045808;28;20037;-63
2021/04/10 08:16:19;;;;;;;5.10;1.45;;;15.50;34.90;;;;;;5046346;28;20474;-63
2021/04/10 08:18:53;;;;;;;6.95;2.50;;;15.60;34.90;;;;;;5043692;28;20030;-64
2021/04/10 08:21:21;;;;;;;5.25;2.53;;;15.70;34.90;;;;;;5050336;28;20477;-63
2021/04/10 08:23:48;;;;;;;2.38;1.42;;;15.70;34.40;;;;;;5043015;28;20040;-62
2021/04/10 08:26:15;;;;;;;5.03;1.67;;;15.70;34.50;;;;;;5052852;28;20021;-63
2021/04/10 08:28:41;;;;;;;4.63;1.73;;;15.10;34.90;;;;;;5049890;28;20027;-63
2021/04/10 08:31:07;;;;;;;8.13;1.88;;;15.30;35.30;;;;;;5051513;28;20032;-63
2021/04/10 08:33:34;;;;;;;4.28;1.52;;;15.40;35.90;;;;;;5042896;28;20018;-63
2021/04/10 08:36:04;;;;;;;4.00;1.42;;;15.40;35.50;;;;;;5046289;28;20390;-63
2021/04/10 08:38:32;;;;;;;4.07;1.30;;;15.50;35.10;;;;;;5044086;28;20074;-64
2021/04/10 08:41:04;;;;;;;4.13;1.33;;;15.70;34.90;;;;;;5044941;28;20033;-63
2021/04/10 08:43:32;;;;;;;5.47;1.73;;;15.50;34.80;;;;;;5042664;28;20037;-64
2021/04/10 08:45:59;;;;;;;5.85;1.40;;;15.50;34.80;;;;;;5048070;28;20470;-64
2021/04/10 08:48:28;;;;;;;6.38;1.33;;;15.50;34.90;;;;;;5041577;28;20379;-64
2021/04/10 08:50:57;;;;;;;3.95;1.52;;;15.50;35.20;;;;;;5044598;28;20493;-64
2021/04/10 08:53:38;;;;;;;4.35;1.50;;;15.40;34.90;;;;;;5043438;28;20029;-64
2021/04/10 08:56:09;;;;;;;4.90;1.20;;;15.60;34.90;;;;;;5038843;28;20424;-64
2021/04/10 08:58:35;;;;;;;5.68;1.50;;;15.80;34.50;;;;;;5046847;28;20024;-64
2021/04/10 09:01:07;;;;;;;8.20;1.58;;;15.70;34.60;;;;;;5039622;28;20081;-64
2021/04/10 09:03:48;;;;;;;1.75;1.20;;;15.40;34.80;;;;;;5037388;28;20040;-64
2021/04/10 09:06:22;;;;;;;5.43;1.75;;;15.50;35.10;;;;;;5045102;28;20033;-64
2021/04/10 09:08:48;;;;;;;;;;;15.80;34.50;;;;;;5043706;28;20425;-63
2021/04/10 09:11:21;;;;;;;3.30;1.15;;;15.90;34.20;;;;;;5046067;28;19912;-63
2021/04/10 09:13:49;;;;;;;5.85;1.50;;;16.00;33.80;;;;;;5043220;28;20037;-63
2021/04/10 09:16:38;;;;;;;4.93;1.40;;;16.20;33.90;;;;;;5040658;28;20104;-63
2021/04/10 09:19:05;;;;;;;1.88;1.20;;;16.40;33.00;;;;;;5046284;28;20029;-63
2021/04/10 09:21:39;;;;;;;4.05;1.40;;;16.50;32.90;;;;;;5070753;28;20032;-63
2021/04/10 09:24:25;;;;;;;5.05;0.90;;;16.60;32.60;;;;;;5051284;28;20494;-63
2021/04/10 09:27:00;;;;;;;3.22;1.30;;;16.60;32.30;;;;;;5042626;28;20036;-63
2021/04/10 09:29:26;;;;;;;;;;;16.60;36.70;;;;;;5048065;28;20104;-65
2021/04/10 09:32:00;;;;;;;2.90;0.80;;;16.50;41.80;;;;;;5040720;28;19908;-65
2021/04/10 09:34:51;;;;;;;5.00;1.60;;;16.60;41.00;;;;;;5051759;28;20124;-65
2021/04/10 09:37:19;;;;;;;4.97;1.20;;;16.80;34.30;;;;;;5042966;28;20028;-64
2021/04/10 09:39:55;;;;;;;4.72;1.35;;;16.30;33.30;;;;;;5053068;28;20112;-64
2021/04/10 09:42:44;;;;;;;3.75;1.13;;;16.30;33.00;;;;;;5054750;28;20052;-64
2021/04/10 09:45:24;;;;;;;2.75;1.27;;;16.10;32.90;;;;;;5043684;28;20032;-64
2021/04/10 09:48:00;;;;;;;2.00;1.20;;;16.20;32.90;;;;;;5054263;28;20025;-64
2021/04/10 09:50:37;;;;;;;5.75;1.50;;;16.30;32.70;;;;;;5053807;28;20025;-64
2021/04/10 09:53:23;;;;;;;3.90;1.38;;;16.40;32.50;;;;;;5051878;28;20029;-64
2021/04/10 09:56:01;;;;;;;3.33;1.02;;;16.50;32.40;;;;;;5053658;28;20029;-60
2021/04/10 09:58:42;;;;;;;5.82;1.58;;;16.40;32.30;;;;;;5060333;28;20033;-60
2021/04/10 10:01:11;;;;;;;3.83;1.95;;;16.30;32.20;;;;;;5050429;28;20099;-59
2021/04/10 10:03:37;;;;;;;3.92;1.20;;;16.30;32.40;;;;;;5045975;28;20065;-59
2021/04/10 10:06:14;;;;;;;7.28;1.77;;;16.40;32.40;;;;;;5044607;28;20122;-59
2021/04/10 10:08:43;;;;;;;6.88;1.55;;;16.20;32.10;;;;;;5036970;28;20490;-59
2021/04/10 10:11:09;;;;;;;3.25;1.25;;;16.30;31.90;;;;;;5038944;28;20379;-60
2021/04/10 10:13:38;;;;;;;2.35;1.40;;;16.30;31.90;;;;;;5049571;28;20029;-59
2021/04/10 10:16:04;;;;;;;8.52;1.42;;;16.30;31.90;;;;;;5043992;28;20017;-61
2021/04/10 10:18:38;;;;;;;4.53;1.63;;;16.30;32.20;;;;;;5048148;28;20033;-60
2021/04/10 10:39:35;;;;;;;3.22;1.85;;;16.40;30.90;;;;;;5117103;27;20362;-67
2021/04/10 10:42:05;;;;;;;3.22;1.30;;;16.30;32.90;;;;;;5127388;28;20057;-67
2021/04/10 10:44:34;;;;;;;6.70;1.98;;;16.20;32.60;;;;;;5130265;28;20433;-62
2021/04/10 10:47:01;;;;;;;7.72;1.60;;;16.30;32.30;;;;;;5130713;28;20039;-67
2021/04/10 10:49:27;;;;;;;4.40;1.55;;;16.40;32.50;;;;;;5123400;28;20023;-67
2021/04/10 10:51:53;;;;;;;4.20;1.70;;;16.50;32.70;;;;;;5130436;28;20040;-67
2021/04/10 10:54:32;;;;;;;2.83;1.48;;;16.60;32.70;;;;;;5130681;28;20388;-67
2021/04/10 10:56:58;;;;;;;4.68;1.58;;;16.50;31.00;;;;;;5131031;28;20084;-67
2021/04/10 10:59:27;;;;;;;4.43;1.50;;;16.40;31.90;;;;;;5130334;28;20413;-67
2021/04/10 11:01:53;;;;;;;2.13;1.60;;;16.40;30.90;;;;;;5103948;28;20441;-67
2021/04/10 11:04:23;;;;;;;5.90;1.48;;;16.50;31.40;;;;;;5124548;28;20023;-67
2021/04/10 11:06:50;;;;;;;3.03;1.33;;;16.20;31.30;;;;;;5116054;28;20024;-67
2021/04/10 11:09:28;;;;;;;5.22;1.40;;;16.30;32.00;;;;;;5130485;28;20040;-67
2021/04/10 11:12:04;;;;;;;6.13;1.48;;;16.30;31.10;;;;;;5098772;28;20019;-67
2021/04/10 11:14:32;;;;;;;2.22;1.30;;;16.20;30.70;;;;;;5130693;28;20015;-67
2021/04/10 11:16:59;;;;;;;2.45;1.40;;;16.30;31.00;;;;;;5130282;28;20446;-67
2021/04/10 11:19:43;;;;;;;6.88;2.30;;;16.20;30.80;;;;;;5125766;28;20026;-67
2021/04/10 11:22:14;;;;;;;3.67;1.70;;;16.30;32.10;;;;;;5094539;28;20016;-68
2021/04/10 11:24:43;;;;;;;4.22;1.77;;;16.10;32.90;;;;;;5114351;28;20408;-67
2021/04/10 11:27:21;;;;;;;3.53;1.48;;;16.20;33.10;;;;;;5125859;28;20503;-67
2021/04/10 11:29:51;;;;;;;5.65;2.05;;;16.20;33.80;;;;;;5129974;28;20034;-67
2021/04/10 11:32:17;;;;;;;6.88;2.13;;;16.30;33.50;;;;;;5129122;28;20065;-67
2021/04/10 11:34:48;;;;;;;5.90;1.70;;;16.30;33.70;;;;;;5125038;28;20067;-67
2021/04/10 11:37:20;;;;;;;3.65;1.45;;;16.30;33.60;;;;;;5127311;28;20062;-67
2021/04/10 11:39:59;;;;;;;3.17;1.92;;;16.30;34.80;;;;;;5099516;28;20110;-67
2021/04/10 11:42:30;;;;;;;4.97;1.80;;;16.40;33.70;;;;;;5116233;28;20354;-67
2021/04/10 11:45:26;;;;;;;4.72;2.08;;;16.40;32.60;;;;;;5116133;28;20148;-67
2021/04/10 11:48:07;;;;;;;3.92;1.95;;;16.40;32.30;;;;;;5112597;28;20111;-67
2021/04/10 11:50:53;;;;;;;5.30;2.00;;;16.40;32.20;;;;;;5115497;28;20071;-67
2021/04/10 11:53:20;;;;;;;5.25;1.80;;;16.50;31.60;;;;;;5115825;28;20035;-67
2021/04/10 11:55:46;;;;;;;3.67;1.27;;;16.50;31.60;;;;;;5115760;28;20035;-67
2021/04/10 11:58:13;;;;;;;3.97;1.25;;;16.50;31.50;;;;;;5116057;28;20533;-67
2021/04/10 12:00:39;;;;;;;2.22;1.20;;;16.50;31.60;;;;;;5115698;28;20020;-67
2021/04/10 12:03:15;;;;;;;2.38;1.13;;;16.50;31.00;;;;;;5109153;28;20024;-67
2021/04/10 12:05:43;;;;;;;5.07;1.10;;;16.30;30.20;;;;;;5077286;28;20465;-67
2021/04/10 12:08:25;;;;;;;2.92;1.17;;;16.50;30.60;;;;;;5115914;28;20031;-67
2021/04/10 12:10:54;;;;;;;1.92;1.20;;;16.30;30.10;;;;;;5115204;28;20019;-67
2021/04/10 12:13:22;;;;;;;5.40;1.77;;;16.50;31.30;;;;;;5102580;28;20019;-67
2021/04/10 12:15:50;;;;;;;6.82;1.63;;;16.70;30.90;;;;;;5115538;28;20027;-67
2021/04/10 12:18:17;;;;;;;4.80;1.30;;;16.60;30.50;;;;;;5095157;28;20016;-67
2021/04/10 12:20:44;;;;;;;3.13;2.03;;;16.70;30.40;;;;;;5071863;28;20032;-67
2021/04/10 12:23:10;;;;;;;6.90;1.73;;;16.70;30.60;;;;;;5115212;28;20031;-67
2021/04/10 12:25:36;;;;;;;3.17;1.80;;;16.70;30.20;;;;;;5105287;28;20024;-67
2021/04/10 12:28:03;;;;;;;8.40;1.90;;;16.70;30.70;;;;;;5111136;28;20118;-67
2021/04/10 12:30:29;;;;;;;4.18;1.40;;;16.90;30.50;;;;;;5096875;28;20525;-67
2021/04/10 12:32:54;;;;;;;3.75;1.98;;;16.80;30.40;;;;;;5114975;28;20031;-67
2021/04/10 12:35:20;;;;;;;3.83;1.80;;;16.80;30.70;;;;;;5114656;28;20046;-67
2021/04/10 12:37:46;;;;;;;4.10;1.30;;;16.70;30.30;;;;;;5114674;28;20130;-67
2021/04/10 12:40:12;;;;;;;3.90;1.63;;;16.60;30.60;;;;;;5114946;28;20027;-67
2021/04/10 12:42:38;;;;;;;4.68;1.70;;;16.70;30.60;;;;;;5115291;28;20016;-67
2021/04/10 12:45:06;;;;;;;5.28;2.35;;;16.70;30.80;;;;;;5114852;28;20388;-67
2021/04/10 12:47:32;;;;;;;6.32;2.10;;;16.70;30.60;;;;;;5114830;28;20098;-67
2021/04/10 12:49:57;;;;;;;3.58;1.83;;;16.80;30.70;;;;;;5113678;28;20024;-67
2021/04/10 12:52:23;;;;;;;5.00;1.83;;;16.80;30.80;;;;;;5114186;28;20081;-67
2021/04/10 12:54:49;;;;;;;5.43;1.50;;;16.60;30.20;;;;;;5114719;28;20077;-67
2021/04/10 12:57:15;;;;;;;7.40;1.65;;;16.80;30.70;;;;;;5095380;28;20034;-67
2021/04/10 12:59:41;;;;;;;5.95;2.03;;;16.90;30.70;;;;;;5111768;28;20081;-66
2021/04/10 13:02:06;;;;;;;4.55;1.85;;;16.70;30.70;;;;;;5100837;28;20028;-67
2021/04/10 13:04:33;;;;;;;4.50;2.00;;;16.80;31.00;;;;;;5089237;28;20035;-67
2021/04/10 13:07:00;;;;;;;4.57;1.60;;;16.70;31.00;;;;;;5095855;28;20388;-70
2021/04/10 13:09:27;;;;;;;3.10;1.60;;;16.80;31.30;;;;;;5102456;28;20422;-69
2021/04/10 13:11:53;;;;;;;3.15;1.90;;;16.60;31.30;;;;;;5112222;28;20110;-70
2021/04/10 13:14:20;;;;;;;5.03;1.70;;;16.70;31.30;;;;;;5102980;28;20417;-70
2021/04/10 13:16:46;;;;;;;4.45;1.92;;;16.50;31.20;;;;;;5105798;28;20532;-70
2021/04/10 13:19:13;;;;;;;7.57;2.30;;;16.40;31.00;;;;;;5101202;28;20024;-69
2021/04/10 13:21:38;;;;;;;3.80;2.22;;;16.40;31.90;;;;;;5105734;28;20112;-69
2021/04/10 13:24:04;;;;;;;6.22;2.00;;;16.20;31.70;;;;;;5102430;28;20236;-69